Tylertown, MS

10:38 AM CDT on September 01, 2015 (GMT -0500)
McComb-Pike County-Lewis | | Change Station
CLOSE
Current Station
Airport
Location: McComb,
Elevation: 410 ft
Nearby Weather Stations

Elev 410 ft 31.18 °N, 90.47 °W | Updated 45 minutes ago

Clear
Clear
84 °F
Feels Like 90 °F
N
5
Wind Variable Wind from Variable

Today
High -- | Low -- °F
--% Chance of Precip.
Yesterday
High -- | Low -- °F
Precip. -- in
6:36 AM 7:24 PM
Waning Gibbous, 88% visible
Pressure 30.09 in
Visibility 10.0 miles
Clouds Clear
Heat Index 90 °F
Dew Point 72 °F
Humidity 67%
Rainfall 0.00 in
Snow Depth Not available.
UV 5 out of 12
Pollen 8.10 out of 12
Air Quality Not available.
Flu Activity Not available.
METAR KMCB 011453Z AUTO VRB04KT 10SM CLR 29/22 A3011 RMK AO2 SLP190 T02890222 53011
Pressure 30.09 in
Visibility 10.0 miles
Clouds Clear
Heat Index 90 °F
Dew Point 72 °F
Humidity 67%
Rainfall 0.00 in
Snow Depth Not available.
UV 5 out of 12
Pollen 8.10 out of 12
Air Quality Not available.
Flu Activity Not available.
METAR KMCB 011453Z AUTO VRB04KT 10SM CLR 29/22 A3011 RMK AO2 SLP190 T02890222 53011

10-Day Weather Forecast

×

Almanac

Astronomy

Sep. 01, 2015 Rise Set
Actual Time
Civil Twilight
Nautical Twilight
Astronomical Twilight
Moon
Length of Visible Light
Length of Day
Tomorrow will be .
, % of the Moon is Illuminated

Today's Extremes

State Highs State Lows

Community

WunderPhotos

Upload Photos

1,851,523 photos uploaded!

WunderBlogs® & News

Nearby

Air Quality

  Air Quality AQ Index Pollutant
Not available.

Snow Depth

Station Depth Elevation

Earthquake Activity

City Distance Mag. Time & Date
Minimum magnitude displayed is 2.5.

Coastal Water Temperatures

Place Temperature

Stations

Nearby Weather Stations

Station Location Temp. Windchill Dew Point Humidity Wind Precip. Elev Updated Type